createdAt,value
2022-10-01T00:00:03.528Z,5.28
2022-10-01T00:02:38.768Z,4.75
2022-10-01T00:05:09.089Z,3.22
2022-10-01T00:07:39.331Z,4.15
2022-10-01T00:10:08.513Z,4.45
2022-10-01T00:12:36.602Z,3.45
2022-10-01T00:15:13.308Z,4.25
2022-10-01T00:17:41.924Z,4.18
2022-10-01T00:20:14.764Z,3.40
2022-10-01T00:22:43.047Z,4.35
2022-10-01T00:25:11.451Z,4.45
2022-10-01T00:27:39.833Z,5.38
2022-10-01T00:30:10.497Z,3.67
2022-10-01T00:32:41.039Z,6.70
2022-10-01T00:35:10.134Z,3.65
2022-10-01T00:37:38.598Z,3.25
2022-10-01T00:40:08.174Z,2.90
2022-10-01T00:42:36.173Z,3.72
2022-10-01T00:45:04.509Z,3.55
2022-10-01T00:47:36.965Z,3.30
2022-10-01T00:50:08.861Z,3.00
2022-10-01T00:52:40.037Z,4.43
2022-10-01T00:55:12.889Z,3.40
2022-10-01T00:57:41.893Z,3.08
2022-10-01T01:00:12.727Z,4.22
2022-10-01T01:02:42.267Z,11.13
2022-10-01T01:05:12.098Z,3.30
2022-10-01T01:07:45.337Z,5.90
2022-10-01T01:10:16.135Z,5.65
2022-10-01T01:12:56.140Z,4.10
2022-10-01T01:15:30.876Z,3.45
2022-10-01T01:18:05.486Z,2.42
2022-10-01T01:20:59.103Z,3.00
2022-10-01T01:23:55.520Z,4.75
2022-10-01T01:26:35.009Z,3.05
2022-10-01T01:29:10.195Z,4.20
2022-10-01T01:31:42.751Z,2.95
2022-10-01T01:34:13.256Z,3.05
2022-10-01T01:36:46.079Z,2.30
2022-10-01T01:39:17.036Z,3.17
2022-10-01T01:41:50.167Z,3.67
2022-10-01T01:44:24.743Z,3.58
2022-10-01T01:46:56.400Z,6.05
2022-10-01T01:49:25.360Z,6.13
2022-10-01T01:51:59.428Z,2.78
2022-10-01T01:54:29.456Z,4.03
2022-10-01T01:56:58.999Z,2.40
2022-10-01T01:59:28.805Z,3.60
2022-10-01T02:01:58.787Z,2.67
2022-10-01T02:04:31.500Z,3.60
2022-10-01T02:07:16.940Z,3.53
2022-10-01T02:09:52.029Z,3.15
2022-10-01T02:12:31.506Z,2.45
2022-10-01T02:15:10.310Z,4.68
2022-10-01T02:17:50.515Z,4.70
2022-10-01T02:20:25.803Z,3.65
2022-10-01T02:22:58.310Z,3.33
2022-10-01T02:25:33.011Z,4.65
2022-10-01T02:28:07.221Z,4.63
2022-10-01T02:30:38.865Z,4.63
2022-10-01T02:33:10.518Z,3.40
2022-10-01T02:35:39.264Z,4.47
2022-10-01T02:38:09.564Z,7.15
2022-10-01T02:40:42.311Z,3.45
2022-10-01T02:43:14.866Z,3.40
2022-10-01T02:45:48.101Z,3.70
2022-10-01T02:48:17.466Z,3.97
2022-10-01T02:50:51.040Z,4.03
2022-10-01T02:53:23.463Z,4.05
2022-10-01T02:55:53.195Z,3.42
2022-10-01T02:58:21.007Z,6.03
2022-10-01T03:00:50.650Z,5.15
2022-10-01T03:03:18.647Z,4.35
2022-10-01T03:05:46.722Z,4.32
2022-10-01T03:08:14.859Z,4.07
2022-10-01T03:10:46.642Z,5.20
2022-10-01T03:13:15.213Z,3.20
2022-10-01T03:15:46.547Z,2.65
2022-10-01T03:18:15.900Z,3.15
2022-10-01T03:20:44.018Z,3.95
2022-10-01T03:23:12.027Z,3.22
2022-10-01T03:25:40.039Z,3.85
2022-10-01T03:28:08.109Z,4.57
2022-10-01T03:30:36.243Z,3.85
2022-10-01T03:33:04.263Z,6.10
2022-10-01T03:35:33.638Z,4.07
2022-10-01T03:38:02.793Z,5.22
2022-10-01T03:40:33.318Z,3.40
2022-10-01T03:43:01.453Z,4.20
2022-10-01T03:45:29.555Z,5.55
2022-10-01T03:47:57.570Z,3.83
2022-10-01T03:50:25.574Z,4.07
2022-10-01T03:52:54.963Z,3.83
2022-10-01T03:55:25.111Z,3.22
2022-10-01T03:57:53.163Z,6.15
2022-10-01T04:00:21.189Z,3.15
2022-10-01T04:02:49.295Z,4.45
2022-10-01T04:05:17.524Z,3.50
2022-10-01T04:07:46.173Z,4.05
2022-10-01T04:10:15.593Z,3.10
2022-10-01T04:12:44.250Z,3.42
2022-10-01T04:15:12.433Z,3.88
2022-10-01T04:17:43.889Z,3.35
2022-10-01T04:20:13.932Z,4.63
2022-10-01T04:22:42.506Z,5.63
2022-10-01T04:25:11.775Z,3.47
2022-10-01T04:27:42.027Z,4.22
2022-10-01T04:30:11.110Z,4.30
2022-10-01T04:32:39.598Z,5.20
2022-10-01T04:35:11.525Z,2.80
2022-10-01T04:37:40.055Z,3.15
2022-10-01T04:40:11.200Z,2.80
2022-10-01T04:42:43.539Z,3.95
2022-10-01T04:45:13.454Z,4.03
2022-10-01T04:47:49.347Z,3.22
2022-10-01T04:50:18.797Z,5.30
2022-10-01T04:52:53.437Z,6.30
2022-10-01T04:55:22.416Z,3.65
2022-10-01T04:57:51.979Z,4.13
2022-10-01T05:00:24.285Z,4.80
2022-10-01T05:02:52.865Z,2.70
2022-10-01T05:05:22.717Z,4.05
2022-10-01T05:07:51.212Z,5.78
2022-10-01T05:10:21.451Z,1.90
2022-10-01T05:12:51.670Z,2.63
2022-10-01T05:15:20.536Z,1.52
2022-10-01T05:17:49.209Z,2.15
2022-10-01T05:20:19.053Z,1.48
2022-10-01T05:22:48.889Z,1.67
2022-10-01T05:25:17.646Z,1.50
2022-10-01T05:27:46.071Z,1.17
2022-10-01T05:30:23.886Z,4.07
2022-10-01T05:32:56.519Z,2.65
2022-10-01T05:35:25.247Z,1.55
2022-10-01T05:37:57.885Z,1.30
2022-10-01T05:40:27.356Z,1.77
2022-10-01T05:42:56.789Z,1.17
2022-10-01T05:45:27.603Z,1.27
2022-10-01T05:48:00.664Z,1.23
2022-10-01T05:50:31.275Z,1.35
2022-10-01T05:52:59.797Z,1.20
2022-10-01T05:55:31.737Z,1.00
2022-10-01T05:58:02.057Z,2.97
2022-10-01T06:00:32.367Z,3.17
2022-10-01T06:03:02.574Z,1.05
2022-10-01T06:05:32.716Z,1.98
2022-10-01T06:08:01.122Z,1.48
2022-10-01T06:10:30.190Z,1.20
2022-10-01T06:13:01.683Z,0.70
2022-10-01T06:15:34.222Z,0.88
2022-10-01T06:18:03.937Z,1.40
2022-10-01T06:20:32.140Z,0.90
2022-10-01T06:23:00.653Z,0.80
2022-10-01T06:25:30.707Z,0.70
2022-10-01T06:28:00.563Z,2.63
2022-10-01T06:30:31.922Z,0.82
2022-10-01T06:33:02.714Z,1.05
2022-10-01T06:35:31.133Z,1.20
2022-10-01T06:38:01.552Z,1.10
2022-10-01T06:40:30.231Z,1.27
2022-10-01T06:42:58.790Z,3.45
2022-10-01T06:45:27.067Z,2.53
2022-10-01T06:47:56.871Z,0.90
2022-10-01T06:50:25.535Z,0.60
2022-10-01T06:52:54.075Z,1.00
2022-10-01T06:55:23.395Z,2.00
2022-10-01T06:57:55.674Z,1.92
2022-10-01T07:00:24.194Z,0.88
2022-10-01T07:02:52.898Z,0.98
2022-10-01T07:05:22.897Z,0.80
2022-10-01T07:07:51.381Z,3.65
2022-10-01T07:10:21.061Z,0.90
2022-10-01T07:12:49.949Z,0.73
2022-10-01T07:15:19.346Z,1.10
2022-10-01T07:17:49.556Z,1.20
2022-10-01T07:20:18.677Z,1.08
2022-10-01T07:22:49.253Z,0.80
2022-10-01T07:25:18.005Z,1.00
2022-10-01T07:27:46.186Z,0.80
2022-10-01T07:30:14.250Z,0.90
2022-10-01T07:32:44.814Z,2.38
2022-10-01T07:35:13.594Z,2.25
2022-10-01T07:37:41.594Z,1.65
2022-10-01T07:40:11.426Z,1.08
2022-10-01T07:42:39.422Z,0.70
2022-10-01T07:45:08.890Z,0.88
2022-10-01T07:47:36.988Z,0.70
2022-10-01T07:50:07.305Z,1.05
2022-10-01T07:52:35.604Z,1.27
2022-10-01T07:55:03.606Z,1.20
2022-10-01T07:57:34.230Z,0.60
2022-10-01T08:00:02.753Z,0.40
2022-10-01T08:02:40.405Z,0.57
2022-10-01T08:05:19.049Z,0.50
2022-10-01T08:07:47.654Z,0.40
2022-10-01T08:10:17.455Z,2.35
2022-10-01T08:12:47.137Z,1.05
2022-10-01T08:15:17.325Z,0.70
2022-10-01T08:17:45.881Z,0.30
2022-10-01T08:20:16.066Z,2.80
2022-10-01T08:22:44.262Z,0.77
2022-10-01T08:25:12.455Z,0.45
2022-10-01T08:27:40.475Z,0.65
2022-10-01T08:30:11.039Z,1.55
2022-10-01T08:32:39.053Z,0.60
2022-10-01T08:35:08.002Z,0.68
2022-10-01T08:37:36.021Z,0.50
2022-10-01T08:40:04.360Z,2.50
2022-10-01T08:42:49.535Z,0.85
2022-10-01T08:45:24.289Z,0.90
2022-10-01T08:47:59.413Z,0.57
2022-10-01T08:50:39.061Z,0.50
2022-10-01T08:53:15.230Z,0.60
2022-10-01T08:55:43.916Z,0.50
2022-10-01T08:58:19.355Z,0.52
2022-10-01T09:00:50.358Z,3.05
2022-10-01T09:03:19.762Z,0.45
2022-10-01T09:05:58.666Z,0.63
2022-10-01T09:08:44.466Z,0.40
2022-10-01T09:11:23.819Z,0.40
2022-10-01T09:14:13.920Z,0.50
2022-10-01T09:16:52.243Z,0.57
2022-10-01T09:19:36.302Z,0.50
2022-10-01T09:22:11.941Z,0.68
2022-10-01T09:24:44.629Z,0.50
2022-10-01T09:27:16.853Z,0.45
2022-10-01T09:29:50.314Z,0.70
2022-10-01T09:32:24.077Z,0.40
2022-10-01T09:34:53.143Z,0.70
2022-10-01T09:37:29.514Z,1.50
2022-10-01T09:40:15.804Z,0.40
2022-10-01T09:42:44.321Z,0.50
2022-10-01T09:45:13.253Z,0.47
2022-10-01T09:47:44.808Z,0.55
2022-10-01T09:50:16.890Z,0.70
2022-10-01T09:52:48.754Z,0.88
2022-10-01T09:55:29.189Z,0.45
2022-10-01T09:58:04.242Z,0.70
2022-10-01T10:00:34.058Z,0.50
2022-10-01T10:03:03.563Z,0.45
2022-10-01T10:05:41.875Z,1.33
2022-10-01T10:08:15.002Z,3.13
2022-10-01T10:10:51.644Z,1.60
2022-10-01T10:13:26.582Z,2.20
2022-10-01T10:15:58.346Z,0.60
2022-10-01T10:18:31.214Z,1.67
2022-10-01T10:21:02.871Z,1.20
2022-10-01T10:23:31.352Z,1.30
2022-10-01T10:26:02.596Z,0.65
2022-10-01T10:28:43.704Z,1.88
2022-10-01T10:31:16.481Z,2.33
2022-10-01T10:34:02.332Z,0.93
2022-10-01T10:36:33.796Z,0.73
2022-10-01T10:39:04.285Z,1.15
2022-10-01T10:41:33.490Z,1.10
2022-10-01T10:44:04.743Z,1.50
2022-10-01T10:46:35.958Z,1.05
2022-10-01T10:49:08.994Z,0.90
2022-10-01T10:51:51.416Z,1.58
2022-10-01T10:54:25.578Z,1.67
2022-10-01T10:56:56.149Z,1.13
2022-10-01T10:59:24.235Z,1.92
2022-10-01T11:01:52.772Z,1.38
2022-10-01T11:04:30.220Z,0.98
2022-10-01T11:07:02.108Z,1.88
2022-10-01T11:09:40.182Z,1.42
2022-10-01T11:12:19.051Z,1.55
2022-10-01T11:14:59.088Z,1.98
2022-10-01T11:17:55.247Z,1.30
2022-10-01T11:20:37.625Z,1.25
2022-10-01T11:23:24.890Z,1.60
2022-10-01T11:26:03.470Z,1.73
2022-10-01T11:28:45.139Z,1.90
2022-10-01T11:31:22.461Z,2.83
2022-10-01T11:34:04.671Z,5.13
2022-10-01T11:36:41.518Z,3.30
2022-10-01T11:39:14.562Z,2.17
2022-10-01T11:41:45.670Z,2.20
2022-10-01T11:44:19.155Z,3.22
2022-10-01T11:46:54.354Z,3.53
2022-10-01T11:49:45.221Z,2.08
2022-10-01T11:52:27.848Z,2.05
2022-10-01T11:55:23.630Z,6.03
2022-10-01T11:58:14.518Z,3.70
2022-10-01T12:00:45.090Z,3.25
2022-10-01T12:03:19.022Z,4.80
2022-10-01T12:05:47.705Z,3.25
2022-10-01T12:08:22.192Z,4.07
2022-10-01T12:10:58.827Z,5.50
2022-10-01T12:13:32.682Z,3.55
2022-10-01T12:16:07.848Z,5.10
2022-10-01T12:18:48.312Z,3.42
2022-10-01T12:21:23.122Z,2.13
2022-10-01T12:23:58.819Z,2.90
2022-10-01T12:26:40.774Z,2.28
2022-10-01T12:29:15.826Z,3.38
2022-10-01T12:31:52.177Z,4.40
2022-10-01T12:34:28.406Z,4.40
2022-10-01T12:37:10.277Z,5.82
2022-10-01T12:39:53.144Z,3.55
2022-10-01T12:42:36.706Z,3.25
2022-10-01T12:45:13.997Z,4.63
2022-10-01T12:47:50.899Z,4.82
2022-10-01T12:50:29.857Z,2.70
2022-10-01T12:53:20.523Z,2.88
2022-10-01T12:56:11.212Z,5.32
2022-10-01T12:59:03.066Z,4.10
2022-10-01T13:01:44.685Z,5.93
2022-10-01T13:04:28.068Z,5.15
2022-10-01T13:07:10.622Z,3.90
2022-10-01T13:09:49.134Z,3.65
2022-10-01T13:12:36.801Z,2.88
2022-10-01T13:15:06.721Z,4.22
2022-10-01T13:17:43.367Z,4.22
2022-10-01T13:20:17.055Z,3.08
2022-10-01T13:22:51.871Z,3.75
2022-10-01T13:25:31.401Z,7.05
2022-10-01T13:28:09.988Z,3.90
2022-10-01T13:30:51.797Z,5.32
2022-10-01T13:33:26.199Z,6.28
2022-10-01T13:35:57.221Z,4.22
2022-10-01T13:38:31.578Z,2.83
2022-10-01T13:41:03.502Z,5.07
2022-10-01T13:43:35.177Z,3.92
2022-10-01T13:46:09.312Z,4.00
2022-10-01T13:48:45.747Z,5.13
2022-10-01T13:51:15.171Z,4.13
2022-10-01T13:53:50.010Z,4.47
2022-10-01T13:56:29.914Z,4.40
2022-10-01T13:58:59.749Z,3.60
2022-10-01T14:01:39.090Z,3.58
2022-10-01T14:04:16.926Z,1.77
2022-10-01T14:06:49.751Z,3.63
2022-10-01T14:09:23.025Z,3.08
2022-10-01T14:12:11.949Z,5.90
2022-10-01T14:15:01.705Z,3.28
2022-10-01T14:17:32.597Z,3.58
2022-10-01T14:20:02.367Z,3.80
2022-10-01T14:22:49.388Z,3.25
2022-10-01T14:25:30.485Z,5.88
2022-10-01T14:28:27.280Z,4.57
2022-10-01T14:31:05.117Z,8.73
2022-10-01T14:33:54.713Z,4.18
2022-10-01T14:36:29.481Z,3.80
2022-10-01T14:39:15.074Z,5.47
2022-10-01T14:41:44.096Z,4.22
2022-10-01T14:44:25.068Z,6.35
2022-10-01T14:46:56.495Z,7.57
2022-10-01T14:49:27.092Z,5.38
2022-10-01T14:52:00.943Z,6.78
2022-10-01T14:54:31.172Z,6.93
2022-10-01T14:57:00.092Z,6.63
2022-10-01T14:59:35.967Z,4.22
2022-10-01T15:02:18.826Z,6.95
2022-10-01T15:04:48.355Z,6.55
2022-10-01T15:07:17.162Z,4.93
2022-10-01T15:09:45.662Z,5.18
2022-10-01T15:12:15.332Z,5.18
2022-10-01T15:14:44.483Z,4.88
2022-10-01T15:17:26.022Z,5.55
2022-10-01T15:19:56.076Z,7.50
2022-10-01T15:22:27.923Z,4.15
2022-10-01T15:25:00.798Z,11.43
2022-10-01T15:27:29.011Z,5.70
2022-10-01T15:29:59.543Z,5.65
2022-10-01T15:32:29.473Z,7.97
2022-10-01T15:35:00.445Z,7.40
2022-10-01T15:37:32.403Z,9.57
2022-10-01T15:40:01.607Z,8.80
2022-10-01T15:42:31.822Z,7.10
2022-10-01T15:45:25.865Z,7.57
2022-10-01T15:47:57.749Z,11.40
2022-10-01T15:50:28.939Z,10.48
2022-10-01T15:53:03.561Z,7.43
2022-10-01T15:55:44.801Z,6.25
2022-10-01T15:58:20.708Z,8.52
2022-10-01T16:01:01.122Z,8.70
2022-10-01T16:03:33.171Z,10.50
2022-10-01T16:06:03.368Z,8.15
2022-10-01T16:08:35.290Z,9.88
2022-10-01T16:11:18.725Z,7.90
2022-10-01T16:13:48.922Z,6.30
2022-10-01T16:16:28.625Z,6.18
2022-10-01T16:19:19.770Z,5.15
2022-10-01T16:22:15.855Z,6.65
2022-10-01T16:24:45.773Z,5.72
2022-10-01T16:27:18.167Z,11.82
2022-10-01T16:29:53.563Z,19.40
2022-10-01T16:32:21.593Z,12.40
2022-10-01T16:34:51.192Z,5.00
2022-10-01T16:37:19.558Z,4.40
2022-10-01T16:39:47.572Z,5.65
2022-10-01T16:42:24.575Z,3.97
2022-10-01T16:44:53.239Z,5.72
2022-10-01T16:47:21.283Z,2.85
2022-10-01T16:49:52.585Z,3.72
2022-10-01T16:52:20.791Z,5.80
2022-10-01T16:54:49.035Z,8.65
2022-10-01T16:57:17.483Z,3.63
2022-10-01T16:59:45.707Z,5.88
2022-10-01T17:02:15.147Z,6.57
2022-10-01T17:04:43.278Z,7.85
2022-10-01T17:07:12.695Z,5.25
2022-10-01T17:09:40.999Z,5.00
2022-10-01T17:12:09.932Z,4.63
2022-10-01T17:14:38.484Z,7.38
2022-10-01T17:17:06.516Z,4.93
2022-10-01T17:19:34.540Z,5.55
2022-10-01T17:22:03.119Z,5.05
2022-10-01T17:24:32.868Z,5.30
2022-10-01T17:27:01.232Z,9.63
2022-10-01T17:29:30.850Z,7.93
2022-10-01T17:31:58.978Z,5.10
2022-10-01T17:34:27.066Z,8.15
2022-10-01T17:36:55.072Z,4.22
2022-10-01T17:39:23.191Z,5.35
2022-10-01T17:41:53.129Z,2.92
2022-10-01T17:44:21.152Z,5.90
2022-10-01T17:46:49.257Z,8.82
2022-10-01T17:49:17.743Z,7.82
2022-10-01T17:51:46.052Z,6.43
2022-10-01T17:54:14.166Z,5.60
2022-10-01T17:56:44.077Z,2.72
2022-10-01T17:59:13.836Z,5.43
2022-10-01T18:01:41.874Z,6.47
2022-10-01T18:04:12.930Z,23.17
2022-10-01T18:06:41.391Z,5.47
2022-10-01T18:09:09.531Z,7.35
2022-10-01T18:11:38.318Z,10.65
2022-10-01T18:14:07.664Z,12.65
2022-10-01T18:16:37.459Z,13.95
2022-10-01T18:21:58.034Z,15.00
2022-10-01T18:24:26.587Z,12.27
2022-10-01T18:26:54.877Z,14.60
2022-10-01T18:29:24.946Z,14.48
2022-10-01T18:31:56.007Z,21.63
2022-10-01T18:34:30.782Z,19.13
2022-10-01T18:37:04.909Z,16.35
2022-10-01T18:39:37.595Z,18.73
2022-10-01T18:42:17.309Z,20.20
2022-10-01T18:44:45.840Z,21.80
2022-10-01T18:47:24.171Z,22.30
2022-10-01T18:50:11.124Z,25.58
2022-10-01T18:52:48.665Z,22.05
2022-10-01T18:55:35.632Z,18.70
2022-10-01T18:58:19.166Z,27.50
2022-10-01T19:00:55.268Z,22.10
2022-10-01T19:03:50.121Z,21.75
2022-10-01T19:06:41.296Z,23.50
2022-10-01T19:09:23.578Z,21.10
2022-10-01T19:12:01.532Z,22.98
2022-10-01T19:14:44.926Z,28.45
2022-10-01T19:17:24.807Z,25.33
2022-10-01T19:20:10.929Z,28.23
2022-10-01T19:23:06.634Z,27.75
2022-10-01T19:25:41.074Z,35.22
2022-10-01T19:28:34.469Z,38.47
2022-10-01T19:31:10.749Z,41.55
2022-10-01T19:33:44.465Z,43.45
2022-10-01T19:36:22.899Z,37.00
2022-10-01T19:38:52.004Z,42.15
2022-10-01T19:41:25.325Z,34.78
2022-10-01T19:43:58.347Z,21.98
2022-10-01T19:46:33.169Z,47.55
2022-10-01T19:49:06.331Z,62.78
2022-10-01T19:51:39.764Z,34.47
2022-10-01T19:54:16.820Z,40.55
2022-10-01T19:56:47.425Z,30.50
2022-10-01T19:59:19.710Z,35.83
2022-10-01T20:01:53.400Z,61.70
2022-10-01T20:04:31.613Z,28.65
2022-10-01T20:07:05.872Z,31.67
2022-10-01T20:09:41.421Z,26.38
2022-10-01T20:12:18.702Z,32.53
2022-10-01T20:15:10.462Z,27.08
2022-10-01T20:17:59.474Z,19.42
2022-10-01T20:20:34.016Z,25.63
2022-10-01T20:23:17.255Z,19.85
2022-10-01T20:25:51.786Z,23.23
2022-10-01T20:28:25.982Z,18.90
2022-10-01T20:31:01.414Z,15.65
2022-10-01T20:33:43.094Z,17.95
2022-10-01T20:36:19.144Z,14.95
2022-10-01T20:38:54.935Z,14.43
2022-10-01T20:41:26.126Z,21.23
2022-10-01T20:43:58.434Z,14.30
2022-10-01T20:46:32.516Z,9.80
2022-10-01T20:49:05.377Z,10.07
2022-10-01T20:51:36.979Z,10.75
2022-10-01T20:54:11.852Z,14.35
2022-10-01T20:56:44.249Z,9.02
2022-10-01T20:59:19.297Z,9.88
2022-10-01T21:01:56.112Z,29.08
2022-10-01T21:04:30.242Z,14.38
2022-10-01T21:07:07.348Z,31.15
2022-10-01T21:09:40.665Z,31.27
2022-10-01T21:12:16.081Z,51.50
2022-10-01T21:14:49.359Z,18.90
2022-10-01T21:17:36.335Z,13.38
2022-10-01T21:20:28.157Z,19.80
2022-10-01T21:23:13.338Z,11.52
2022-10-01T21:26:00.724Z,37.67
2022-10-01T21:28:45.691Z,5.20
2022-10-01T21:31:26.940Z,9.50
2022-10-01T21:34:01.981Z,10.60
2022-10-01T21:36:38.341Z,36.85
2022-10-01T21:39:11.825Z,29.85
2022-10-01T21:41:53.648Z,5.10
2022-10-01T21:45:02.975Z,9.32
2022-10-01T21:47:50.730Z,5.63
2022-10-01T21:50:26.109Z,66.13
2022-10-01T21:53:11.138Z,9.68
2022-10-01T21:55:54.422Z,7.45
2022-10-01T21:58:37.085Z,5.72
2022-10-01T22:01:13.459Z,12.55
2022-10-01T22:03:49.461Z,16.08
2022-10-01T22:06:21.915Z,8.05
2022-10-01T22:09:02.807Z,30.55
2022-10-01T22:11:35.362Z,9.30
2022-10-01T22:14:14.344Z,4.88
2022-10-01T22:16:49.133Z,12.60
2022-10-01T22:19:22.271Z,10.60
2022-10-01T22:21:55.130Z,13.95
2022-10-01T22:24:30.927Z,11.95
2022-10-01T22:27:06.425Z,12.57
2022-10-01T22:29:41.189Z,16.20
2022-10-01T22:32:12.730Z,16.13
2022-10-01T22:34:45.021Z,14.57
2022-10-01T22:37:18.470Z,12.80
2022-10-01T22:39:52.319Z,16.83
2022-10-01T22:42:25.961Z,13.50
2022-10-01T22:44:56.013Z,12.32
2022-10-01T22:47:50.162Z,14.52
2022-10-01T22:50:32.383Z,11.75
2022-10-01T22:53:12.847Z,11.82
2022-10-01T22:55:48.261Z,14.20
2022-10-01T22:58:32.987Z,12.07
2022-10-01T23:01:13.726Z,15.98
2022-10-01T23:03:54.191Z,11.55
2022-10-01T23:06:29.231Z,11.65
2022-10-01T23:09:06.415Z,16.85
2022-10-01T23:11:42.845Z,15.15
2022-10-01T23:14:22.273Z,20.50
2022-10-01T23:16:58.119Z,17.33
2022-10-01T23:19:39.988Z,12.85
2022-10-01T23:22:17.947Z,14.30
2022-10-01T23:25:04.001Z,16.88
2022-10-01T23:27:39.461Z,14.07
2022-10-01T23:30:14.173Z,18.00
2022-10-01T23:33:05.673Z,21.15
2022-10-01T23:35:45.968Z,21.48
2022-10-01T23:38:27.908Z,17.88
2022-10-01T23:40:59.413Z,22.77
2022-10-01T23:43:31.490Z,21.65
2022-10-01T23:46:04.529Z,14.48
2022-10-01T23:48:39.834Z,20.30
2022-10-01T23:51:13.506Z,10.38
2022-10-01T23:53:46.210Z,17.00
2022-10-01T23:56:37.749Z,19.15
2022-10-01T23:59:12.849Z,17.00
